Time;durP1;ratioP1;P1;durP2;ratioP2;P2;SDS_P1;SDS_P2;PMS_P1;PMS_P2;Temp;Humidity;BMP_temperature;BMP_pressure;BME280_temperature;BME280_humidity;BME280_pressure;Samples;Min_cycle;Max_cycle;Signal;HPM_P1;HPM_P2
2022/01/31 00:01:23;;;;;;;18.73;4.73;;;0.20;99.90;;;;;;5066515;28;20212;-65
2022/01/31 00:03:49;;;;;;;13.70;3.70;;;0.20;99.90;;;;;;5068011;28;20184;-65
2022/01/31 00:06:15;;;;;;;11.40;4.07;;;0.20;99.90;;;;;;5065250;28;20422;-65
2022/01/31 00:08:42;;;;;;;10.70;4.40;;;0.20;99.90;;;;;;5066952;28;20182;-65
2022/01/31 00:11:07;;;;;;;14.00;5.00;;;0.10;99.90;;;;;;5063554;28;20238;-66
2022/01/31 00:13:37;;;;;;;17.70;3.77;;;0.10;99.90;;;;;;5066556;28;20902;-65
2022/01/31 00:16:04;;;;;;;13.87;4.33;;;0.10;99.90;;;;;;5066767;28;20185;-66
2022/01/31 00:18:30;;;;;;;9.43;3.03;;;0.00;99.90;;;;;;5065605;28;20428;-67
2022/01/31 00:20:55;;;;;;;16.83;5.07;;;0.10;99.90;;;;;;5066107;28;20477;-66
2022/01/31 00:23:21;;;;;;;14.60;5.50;;;0.00;99.90;;;;;;5066231;28;20220;-66
2022/01/31 00:25:47;;;;;;;17.13;5.93;;;0.00;99.90;;;;;;5065801;28;20189;-66
2022/01/31 00:28:14;;;;;;;9.70;3.97;;;0.00;99.90;;;;;;5067251;28;20216;-66
2022/01/31 00:30:40;;;;;;;11.93;4.60;;;0.00;99.90;;;;;;5056574;28;20188;-66
2022/01/31 00:33:05;;;;;;;22.93;4.63;;;0.00;99.90;;;;;;5071419;28;20426;-66
2022/01/31 00:35:31;;;;;;;15.33;5.10;;;0.00;99.90;;;;;;5066258;28;21291;-66
2022/01/31 00:37:57;;;;;;;8.07;3.47;;;0.10;99.90;;;;;;5066278;28;21176;-65
2022/01/31 00:40:23;;;;;;;9.17;3.70;;;0.00;99.90;;;;;;5066385;28;20477;-65
2022/01/31 00:42:49;;;;;;;11.93;5.73;;;0.10;99.90;;;;;;5079253;28;20216;-65
2022/01/31 00:45:23;;;;;;;12.80;3.80;;;0.10;99.90;;;;;;5065365;28;20239;-65
2022/01/31 00:48:00;;;;;;;19.73;4.13;;;0.10;99.90;;;;;;5060077;28;20196;-65
2022/01/31 00:50:25;;;;;;;10.77;3.50;;;0.20;99.90;;;;;;5069118;28;20786;-67
2022/01/31 00:52:51;;;;;;;11.60;4.10;;;0.20;99.90;;;;;;5078403;28;20426;-66
2022/01/31 00:55:17;;;;;;;9.90;4.10;;;0.20;99.90;;;;;;5078866;28;20907;-66
2022/01/31 00:57:43;;;;;;;15.73;3.90;;;0.30;99.90;;;;;;5070280;28;20575;-67
2022/01/31 01:00:10;;;;;;;18.20;3.23;;;0.30;99.90;;;;;;5070348;28;20215;-67
2022/01/31 01:02:37;;;;;;;17.33;4.63;;;0.30;99.90;;;;;;5068584;28;20201;-67
2022/01/31 01:05:03;;;;;;;6.70;2.57;;;0.30;99.90;;;;;;5065278;28;20420;-67
2022/01/31 01:07:29;;;;;;;15.83;4.10;;;0.40;99.90;;;;;;5070251;28;20415;-67
2022/01/31 01:09:54;;;;;;;6.20;3.97;;;0.40;99.90;;;;;;5069032;28;20757;-66
2022/01/31 01:12:20;;;;;;;22.23;3.47;;;0.40;99.90;;;;;;5069557;28;20665;-66
2022/01/31 01:14:48;;;;;;;14.87;4.53;;;0.40;99.90;;;;;;5070017;28;20620;-66
2022/01/31 01:17:13;;;;;;;15.00;3.60;;;0.40;99.90;;;;;;5078240;28;20633;-67
2022/01/31 01:19:39;;;;;;;18.20;3.63;;;0.40;99.90;;;;;;5069615;28;20438;-67
2022/01/31 01:22:05;;;;;;;11.00;2.20;;;0.40;99.90;;;;;;5076629;28;20205;-67
2022/01/31 01:24:30;;;;;;;10.43;3.40;;;0.40;99.90;;;;;;5070502;28;20213;-67
2022/01/31 01:26:57;;;;;;;9.53;3.10;;;0.40;99.90;;;;;;5069481;28;20192;-67
2022/01/31 01:29:23;;;;;;;10.13;2.63;;;0.50;99.90;;;;;;5076684;28;20394;-67
2022/01/31 01:31:50;;;;;;;7.37;2.77;;;0.60;99.90;;;;;;5069037;28;20422;-67
2022/01/31 01:34:16;;;;;;;10.60;4.43;;;0.60;99.90;;;;;;5069238;28;20425;-67
2022/01/31 01:36:44;;;;;;;20.23;3.53;;;0.60;99.90;;;;;;5074206;28;20448;-67
2022/01/31 01:39:10;;;;;;;12.13;3.40;;;0.70;99.90;;;;;;5074654;28;20422;-67
2022/01/31 01:41:36;;;;;;;13.70;4.13;;;0.60;99.90;;;;;;5071514;28;20982;-67
2022/01/31 01:44:02;;;;;;;5.90;2.57;;;0.60;99.90;;;;;;5065736;28;20528;-66
2022/01/31 01:46:28;;;;;;;28.83;4.10;;;0.60;99.90;;;;;;5080936;28;20528;-66
2022/01/31 01:48:53;;;;;;;8.80;2.87;;;0.70;99.90;;;;;;5078979;28;20422;-66
2022/01/31 01:51:19;;;;;;;4.80;2.40;;;0.70;99.90;;;;;;5068062;28;20220;-67
2022/01/31 01:53:45;;;;;;;11.83;3.10;;;0.70;99.90;;;;;;5072272;28;20189;-67
2022/01/31 01:56:11;;;;;;;5.70;3.40;;;0.60;99.90;;;;;;5068097;28;20205;-67
2022/01/31 01:58:42;;;;;;;8.73;3.93;;;0.60;99.90;;;;;;5068697;28;20270;-67
2022/01/31 02:01:09;;;;;;;4.93;2.33;;;0.60;99.90;;;;;;5063893;28;20461;-67
2022/01/31 02:03:37;;;;;;;8.63;3.30;;;0.60;99.90;;;;;;5068313;28;20463;-67
2022/01/31 02:06:04;;;;;;;9.03;2.77;;;0.70;99.90;;;;;;5068237;28;20461;-67
2022/01/31 02:08:39;;;;;;;5.00;3.07;;;0.70;99.90;;;;;;5071074;28;20511;-67
2022/01/31 02:11:06;;;;;;;11.00;3.50;;;0.70;99.90;;;;;;5067059;28;20450;-66
2022/01/31 02:13:31;;;;;;;10.17;3.07;;;0.60;99.90;;;;;;5068737;28;20466;-66
2022/01/31 02:15:57;;;;;;;4.87;3.17;;;0.60;99.90;;;;;;5076806;28;20458;-67
2022/01/31 02:18:26;;;;;;;16.93;2.83;;;0.60;99.90;;;;;;5068416;28;20185;-67
2022/01/31 02:20:52;;;;;;;10.33;3.10;;;0.60;99.90;;;;;;5066970;28;20716;-67
2022/01/31 02:23:18;;;;;;;13.53;2.97;;;0.50;99.90;;;;;;5068500;28;20512;-67
2022/01/31 02:25:58;;;;;;;8.10;3.27;;;0.50;99.90;;;;;;5068571;28;20264;-67
2022/01/31 02:28:26;;;;;;;6.50;2.90;;;0.50;99.90;;;;;;5081298;28;20185;-66
2022/01/31 02:30:52;;;;;;;9.80;3.33;;;0.50;99.90;;;;;;5068045;28;20419;-67
2022/01/31 02:33:19;;;;;;;11.20;3.23;;;0.50;99.90;;;;;;5067980;28;20427;-67
2022/01/31 02:35:46;;;;;;;4.43;2.80;;;0.40;99.90;;;;;;5070765;28;20701;-67
2022/01/31 02:38:12;;;;;;;6.60;3.10;;;0.40;99.90;;;;;;5066609;28;20420;-66
2022/01/31 02:40:38;;;;;;;12.03;3.70;;;0.40;99.90;;;;;;5073126;28;20421;-67
2022/01/31 02:43:04;;;;;;;10.00;4.23;;;0.40;99.90;;;;;;5074511;28;20619;-67
2022/01/31 02:45:30;;;;;;;11.87;3.80;;;0.40;99.90;;;;;;5067731;28;20181;-67
2022/01/31 02:47:58;;;;;;;5.63;3.33;;;0.50;99.90;;;;;;5065732;28;20430;-67
2022/01/31 02:50:25;;;;;;;8.37;3.67;;;0.50;99.90;;;;;;5076244;28;20426;-67
2022/01/31 02:53:00;;;;;;;10.07;3.83;;;0.60;99.90;;;;;;5069165;28;20934;-67
2022/01/31 02:55:26;;;;;;;9.80;3.60;;;0.60;99.90;;;;;;5067166;28;20525;-67
2022/01/31 02:57:52;;;;;;;5.47;2.90;;;0.60;99.90;;;;;;5070103;28;20490;-67
2022/01/31 03:00:17;;;;;;;9.30;3.87;;;0.60;99.90;;;;;;5066741;28;20463;-67
2022/01/31 03:02:43;;;;;;;5.93;2.93;;;0.60;99.90;;;;;;5068246;28;20212;-67
2022/01/31 03:05:09;;;;;;;7.33;2.80;;;0.60;99.90;;;;;;5070805;28;20180;-67
2022/01/31 03:07:36;;;;;;;8.77;2.73;;;0.60;99.90;;;;;;5067192;28;20189;-67
2022/01/31 03:10:01;;;;;;;12.27;3.07;;;0.60;99.90;;;;;;5064182;28;20209;-67
2022/01/31 03:12:28;;;;;;;10.90;3.20;;;0.60;99.90;;;;;;5066054;28;20523;-67
2022/01/31 03:14:54;;;;;;;5.67;2.40;;;0.60;99.90;;;;;;5067705;28;20218;-67
2022/01/31 03:17:20;;;;;;;5.73;2.80;;;0.60;99.90;;;;;;5073261;28;20427;-67
2022/01/31 03:19:52;;;;;;;14.07;2.60;;;0.70;99.90;;;;;;5067372;28;20614;-67
2022/01/31 03:22:19;;;;;;;11.83;3.07;;;0.70;99.90;;;;;;5066737;28;20237;-67
2022/01/31 03:24:45;;;;;;;7.27;3.40;;;0.60;99.90;;;;;;5066982;28;20415;-67
2022/01/31 03:27:11;;;;;;;9.50;3.77;;;0.70;99.90;;;;;;5083033;28;20552;-67
2022/01/31 03:29:36;;;;;;;6.07;3.30;;;0.70;99.90;;;;;;5069217;28;20177;-67
2022/01/31 03:32:02;;;;;;;10.50;3.70;;;0.70;99.90;;;;;;5066629;28;20185;-67
2022/01/31 03:34:28;;;;;;;16.33;4.57;;;0.70;99.90;;;;;;5064909;28;20688;-67
2022/01/31 03:36:53;;;;;;;10.40;4.10;;;0.80;99.90;;;;;;5066672;28;20993;-67
2022/01/31 03:39:19;;;;;;;8.20;3.17;;;0.80;99.90;;;;;;5066873;28;20671;-67
2022/01/31 03:41:45;;;;;;;18.57;3.40;;;0.80;99.90;;;;;;5048434;28;20185;-67
2022/01/31 03:44:10;;;;;;;9.50;3.67;;;0.80;99.90;;;;;;5060921;28;20213;-67
2022/01/31 03:46:38;;;;;;;8.90;3.57;;;0.90;99.90;;;;;;5073181;28;20649;-66
2022/01/31 03:49:04;;;;;;;11.33;3.20;;;0.80;99.90;;;;;;5064407;28;20177;-66
2022/01/31 03:51:30;;;;;;;5.27;3.03;;;0.90;99.90;;;;;;5063932;28;20767;-66
2022/01/31 03:53:56;;;;;;;15.93;4.03;;;0.90;99.90;;;;;;5064563;28;20181;-66
2022/01/31 03:56:21;;;;;;;11.93;3.30;;;0.90;99.90;;;;;;5071005;28;20214;-66
2022/01/31 03:58:47;;;;;;;9.77;4.20;;;1.00;99.90;;;;;;5072043;28;20427;-66
2022/01/31 04:01:13;;;;;;;8.10;3.60;;;1.10;99.90;;;;;;5064762;28;20181;-67
2022/01/31 04:03:38;;;;;;;9.10;3.33;;;1.10;99.90;;;;;;5067050;28;20242;-67
2022/01/31 04:06:04;;;;;;;11.60;2.53;;;1.20;99.90;;;;;;5065736;28;20730;-67
2022/01/31 04:08:30;;;;;;;20.30;4.83;;;1.20;99.90;;;;;;5066334;28;20181;-67
2022/01/31 04:10:56;;;;;;;4.40;2.77;;;1.20;99.90;;;;;;5061484;28;20177;-67
2022/01/31 04:13:21;;;;;;;6.70;2.87;;;1.20;99.90;;;;;;5065709;28;20475;-67
2022/01/31 04:15:47;;;;;;;7.43;3.10;;;1.20;99.90;;;;;;5066035;28;20181;-66
2022/01/31 04:18:14;;;;;;;8.43;3.13;;;1.30;99.90;;;;;;5075855;28;20185;-66
2022/01/31 04:20:39;;;;;;;8.77;2.70;;;1.30;99.90;;;;;;5060338;28;20192;-66
2022/01/31 04:23:10;;;;;;;7.13;3.17;;;1.30;99.90;;;;;;5065280;28;20826;-66
2022/01/31 04:25:45;;;;;;;8.33;2.90;;;1.30;99.90;;;;;;5066079;28;20272;-66
2022/01/31 04:33:29;;;;;;;9.30;2.20;;;1.20;99.90;;;;;;5065628;28;20530;-66
2022/01/31 04:35:56;;;;;;;8.20;2.53;;;1.30;99.90;;;;;;5069194;28;20553;-66
2022/01/31 04:38:22;;;;;;;6.87;3.03;;;1.40;99.90;;;;;;5075682;28;20224;-67
2022/01/31 04:40:48;;;;;;;5.73;2.80;;;1.40;99.90;;;;;;5064769;28;21138;-67
2022/01/31 04:43:14;;;;;;;5.43;2.63;;;1.40;99.90;;;;;;5065318;28;20458;-67
2022/01/31 04:45:46;;;;;;;9.53;3.50;;;1.40;99.90;;;;;;5065396;28;20189;-67
2022/01/31 04:48:16;;;;;;;8.43;3.27;;;1.40;99.90;;;;;;5061686;28;20419;-67
2022/01/31 04:50:43;;;;;;;3.20;1.90;;;1.50;99.90;;;;;;5074071;28;20619;-67
2022/01/31 04:53:10;;;;;;;8.37;3.30;;;1.50;99.90;;;;;;5065497;28;20415;-67
2022/01/31 04:55:35;;;;;;;7.03;2.50;;;1.50;99.90;;;;;;5065760;28;20766;-67
2022/01/31 04:58:02;;;;;;;9.83;2.03;;;1.50;99.90;;;;;;5066664;28;20442;-67
2022/01/31 05:00:28;;;;;;;4.80;2.57;;;1.50;99.90;;;;;;5065813;28;20191;-67
2022/01/31 05:02:54;;;;;;;3.67;1.50;;;1.60;99.90;;;;;;5059131;28;20551;-67
2022/01/31 05:05:20;;;;;;;13.50;3.23;;;1.70;99.90;;;;;;5073700;28;20453;-67
2022/01/31 05:07:45;;;;;;;4.07;2.47;;;1.80;99.90;;;;;;5067499;28;20494;-67
2022/01/31 05:10:11;;;;;;;8.13;2.63;;;1.80;99.90;;;;;;5065548;28;20177;-67
2022/01/31 05:12:37;;;;;;;10.63;2.33;;;1.70;99.90;;;;;;5071682;28;20357;-66
2022/01/31 05:15:04;;;;;;;5.07;1.90;;;1.70;99.90;;;;;;5075486;28;20180;-66
2022/01/31 05:17:29;;;;;;;13.60;2.77;;;1.70;99.90;;;;;;5065069;28;20192;-66
2022/01/31 05:19:55;;;;;;;7.80;2.07;;;1.70;99.90;;;;;;5077271;28;20426;-66
2022/01/31 05:22:21;;;;;;;10.33;2.57;;;1.80;99.90;;;;;;5064418;28;20209;-66
2022/01/31 05:24:47;;;;;;;6.83;1.63;;;1.70;99.90;;;;;;5069637;28;20184;-66
2022/01/31 05:27:13;;;;;;;7.47;2.37;;;1.70;99.90;;;;;;5066550;28;20187;-68
2022/01/31 05:29:39;;;;;;;24.83;2.00;;;1.70;99.90;;;;;;5070364;28;20178;-67
2022/01/31 05:32:05;;;;;;;11.77;2.57;;;1.70;99.90;;;;;;5065403;28;20477;-68
2022/01/31 05:34:31;;;;;;;5.70;3.17;;;1.70;99.90;;;;;;5065753;28;20514;-68
2022/01/31 05:36:56;;;;;;;8.20;1.93;;;1.70;99.90;;;;;;5069441;28;20935;-68
2022/01/31 05:39:24;;;;;;;5.80;1.70;;;1.70;99.90;;;;;;5069028;28;20188;-68
2022/01/31 05:41:51;;;;;;;5.70;2.10;;;1.70;99.90;;;;;;5068625;28;20231;-68
2022/01/31 05:44:17;;;;;;;18.67;3.93;;;1.70;99.90;;;;;;5064626;28;20966;-67
2022/01/31 05:46:43;;;;;;;14.03;2.47;;;1.70;99.90;;;;;;5066648;28;20423;-67
2022/01/31 05:49:08;;;;;;;9.10;2.63;;;1.70;99.90;;;;;;5075447;28;20426;-67
2022/01/31 05:51:48;;;;;;;4.47;2.10;;;1.70;99.90;;;;;;5067281;28;20653;-67
2022/01/31 05:54:14;;;;;;;10.23;2.73;;;1.70;99.90;;;;;;5072886;28;20187;-68
2022/01/31 05:56:39;;;;;;;9.63;2.30;;;1.80;99.90;;;;;;5070914;28;20439;-67
2022/01/31 05:59:05;;;;;;;3.53;1.97;;;1.70;99.90;;;;;;5068473;28;20182;-67
2022/01/31 06:01:31;;;;;;;5.37;2.00;;;1.70;99.90;;;;;;5071611;28;20613;-68
2022/01/31 06:03:56;;;;;;;5.33;1.63;;;1.70;99.90;;;;;;5068979;28;20197;-68
2022/01/31 06:06:22;;;;;;;5.83;2.20;;;1.80;99.90;;;;;;5068081;28;20190;-68
2022/01/31 06:08:48;;;;;;;4.00;2.23;;;1.90;99.90;;;;;;5073676;28;20186;-68
2022/01/31 06:11:13;;;;;;;2.73;1.30;;;1.90;99.90;;;;;;5066421;28;20223;-67
2022/01/31 06:13:42;;;;;;;10.93;2.13;;;1.90;99.90;;;;;;5068932;28;20204;-67
2022/01/31 06:16:07;;;;;;;9.60;2.30;;;1.90;99.90;;;;;;5078549;28;20184;-67
2022/01/31 06:18:35;;;;;;;5.13;2.63;;;2.00;99.90;;;;;;5068534;28;20594;-67
2022/01/31 06:21:02;;;;;;;6.17;2.10;;;2.00;99.90;;;;;;5077836;28;20234;-67
2022/01/31 06:23:29;;;;;;;5.93;1.57;;;2.10;99.90;;;;;;5067929;28;20525;-67
2022/01/31 06:25:55;;;;;;;4.53;2.00;;;2.00;99.90;;;;;;5066201;28;20510;-65
2022/01/31 06:28:21;;;;;;;3.40;1.67;;;2.10;99.90;;;;;;5077998;28;21016;-66
2022/01/31 06:30:46;;;;;;;8.20;2.70;;;2.00;99.90;;;;;;5074298;28;20192;-66
2022/01/31 06:33:16;;;;;;;9.60;2.83;;;2.00;99.90;;;;;;5075386;28;20438;-66
2022/01/31 06:35:43;;;;;;;13.43;3.13;;;2.00;99.90;;;;;;5081545;28;20611;-66
2022/01/31 06:38:09;;;;;;;5.30;2.33;;;1.90;99.90;;;;;;5088667;28;20514;-67
2022/01/31 06:40:34;;;;;;;2.80;1.80;;;2.00;99.90;;;;;;5077199;28;20839;-67
2022/01/31 06:43:00;;;;;;;4.37;2.13;;;2.00;99.90;;;;;;5079019;28;20809;-66
2022/01/31 06:45:26;;;;;;;9.33;2.60;;;2.00;99.90;;;;;;5078676;28;20649;-66
2022/01/31 06:47:51;;;;;;;4.43;2.30;;;2.00;99.90;;;;;;5079437;28;20191;-66
2022/01/31 06:50:17;;;;;;;3.80;1.93;;;2.00;99.90;;;;;;5066407;28;20191;-66
2022/01/31 06:52:42;;;;;;;5.47;2.60;;;2.00;99.90;;;;;;5070975;28;20646;-66
2022/01/31 06:55:18;;;;;;;6.50;2.60;;;1.90;99.90;;;;;;5079350;28;20609;-66
2022/01/31 06:57:43;;;;;;;5.63;2.60;;;1.80;99.90;;;;;;5088584;28;20730;-67
2022/01/31 07:00:09;;;;;;;8.97;2.83;;;1.80;99.90;;;;;;5084943;28;20538;-67
2022/01/31 07:02:35;;;;;;;13.43;2.80;;;1.80;99.90;;;;;;5076761;28;20250;-66
2022/01/31 07:05:01;;;;;;;3.90;2.43;;;1.80;99.90;;;;;;5088066;28;20447;-66
2022/01/31 07:07:28;;;;;;;10.73;2.60;;;1.80;99.90;;;;;;5088756;28;20411;-67
2022/01/31 07:09:53;;;;;;;9.40;2.93;;;1.70;99.90;;;;;;5079236;28;20423;-66
2022/01/31 07:12:23;;;;;;;3.70;2.60;;;1.70;99.90;;;;;;5061508;28;20426;-66
2022/01/31 07:14:48;;;;;;;6.13;2.90;;;1.70;99.90;;;;;;5068347;28;20638;-66
2022/01/31 07:17:14;;;;;;;7.53;2.47;;;1.70;99.90;;;;;;5081724;28;20417;-66
2022/01/31 07:19:41;;;;;;;7.17;2.83;;;1.70;99.90;;;;;;5083414;28;20215;-66
2022/01/31 07:22:11;;;;;;;8.50;2.17;;;1.70;99.90;;;;;;5085265;28;20229;-66
2022/01/31 07:27:04;;;;;;;10.47;2.63;;;1.70;99.90;;;;;;5072339;28;20419;-66
2022/01/31 07:29:30;;;;;;;11.30;2.73;;;1.70;99.90;;;;;;5067717;28;20899;-66
2022/01/31 07:31:57;;;;;;;5.70;2.63;;;1.70;99.90;;;;;;5075912;28;20422;-66
2022/01/31 07:34:23;;;;;;;12.13;2.30;;;1.70;99.90;;;;;;5078620;28;20197;-68
2022/01/31 07:36:49;;;;;;;15.33;2.50;;;1.70;99.90;;;;;;5070782;28;20454;-67
2022/01/31 07:39:15;;;;;;;22.73;3.03;;;1.70;99.90;;;;;;5090779;28;20433;-67
2022/01/31 07:41:42;;;;;;;5.70;2.37;;;1.60;99.90;;;;;;5085563;28;20422;-67
2022/01/31 07:44:08;;;;;;;7.33;2.60;;;1.70;99.90;;;;;;5085907;28;20454;-67
2022/01/31 07:46:35;;;;;;;4.23;2.43;;;1.70;99.90;;;;;;5077125;28;20550;-67
2022/01/31 07:49:01;;;;;;;4.90;2.60;;;1.70;99.90;;;;;;5083098;28;20493;-67
2022/01/31 07:51:27;;;;;;;5.33;2.80;;;1.70;99.90;;;;;;5083300;28;20526;-67
2022/01/31 07:53:52;;;;;;;5.10;2.40;;;1.70;99.90;;;;;;5065549;28;20200;-67
2022/01/31 07:56:20;;;;;;;5.87;3.47;;;1.70;99.90;;;;;;5076925;28;20596;-67
2022/01/31 07:58:45;;;;;;;6.30;3.53;;;1.70;99.90;;;;;;5066053;28;20698;-66
2022/01/31 08:01:12;;;;;;;11.23;3.10;;;1.60;99.90;;;;;;5074842;28;20430;-66
2022/01/31 08:03:37;;;;;;;4.80;2.87;;;1.70;99.90;;;;;;5070419;28;20260;-66
2022/01/31 08:06:03;;;;;;;12.30;3.40;;;1.70;99.90;;;;;;5070371;28;20554;-67
2022/01/31 08:08:30;;;;;;;8.00;2.77;;;1.70;99.90;;;;;;5077105;28;20185;-67
2022/01/31 08:10:57;;;;;;;8.03;2.00;;;1.70;99.90;;;;;;5067797;28;20923;-67
2022/01/31 08:13:26;;;;;;;6.73;2.57;;;1.60;99.90;;;;;;5080024;28;20419;-68
2022/01/31 08:16:02;;;;;;;4.43;2.00;;;1.60;99.90;;;;;;5077436;28;20415;-68
2022/01/31 08:18:29;;;;;;;4.37;2.57;;;1.70;99.90;;;;;;5061106;28;20436;-67
2022/01/31 08:20:56;;;;;;;2.80;1.73;;;1.70;99.90;;;;;;5062150;28;21027;-67
2022/01/31 08:23:21;;;;;;;3.50;1.37;;;1.80;99.90;;;;;;5063486;28;20471;-67
2022/01/31 08:25:49;;;;;;;4.10;1.73;;;1.80;99.90;;;;;;5069326;28;20412;-67
2022/01/31 08:28:16;;;;;;;3.27;1.40;;;1.80;99.90;;;;;;5070592;28;20176;-68
2022/01/31 08:31:07;;;;;;;4.47;2.00;;;1.80;99.90;;;;;;5060657;28;20911;-67
2022/01/31 08:36:13;;;;;;;2.83;1.43;;;1.90;99.90;;;;;;5062105;28;20426;-68
2022/01/31 08:38:40;;;;;;;3.63;0.80;;;1.90;99.90;;;;;;5062332;28;20419;-67
2022/01/31 08:41:07;;;;;;;4.30;1.30;;;2.00;99.90;;;;;;5071423;28;20781;-67
2022/01/31 08:43:34;;;;;;;1.50;0.70;;;2.00;99.90;;;;;;5060693;28;20553;-68
2022/01/31 08:46:00;;;;;;;1.67;0.77;;;2.10;99.90;;;;;;5068367;28;20428;-67
2022/01/31 08:48:27;;;;;;;2.43;1.40;;;2.10;99.90;;;;;;5066029;28;20512;-67
2022/01/31 08:50:54;;;;;;;1.87;1.10;;;2.10;99.90;;;;;;5067867;28;20430;-68
2022/01/31 08:53:20;;;;;;;5.40;2.03;;;2.20;99.90;;;;;;5065240;28;20429;-68
2022/01/31 08:55:50;;;;;;;2.90;1.80;;;2.20;99.90;;;;;;5066678;28;20420;-68
2022/01/31 08:58:16;;;;;;;4.30;2.03;;;2.40;99.90;;;;;;5064524;28;20189;-68
2022/01/31 09:00:43;;;;;;;2.40;1.13;;;2.50;99.90;;;;;;5066912;28;20800;-67
2022/01/31 09:05:38;;;;;;;2.57;1.43;;;2.50;99.90;;;;;;5060591;28;20422;-67
2022/01/31 09:08:04;;;;;;;1.80;1.10;;;2.50;99.90;;;;;;5065627;28;20864;-67
2022/01/31 09:10:30;;;;;;;1.83;0.90;;;2.50;99.90;;;;;;5047460;28;20430;-68
2022/01/31 09:12:56;;;;;;;1.30;0.70;;;2.60;99.90;;;;;;5079459;28;20418;-68
2022/01/31 09:15:22;;;;;;;1.30;0.73;;;2.70;99.90;;;;;;5067543;28;20193;-67
2022/01/31 09:17:48;;;;;;;1.20;0.60;;;2.70;99.90;;;;;;5068876;28;20189;-67
2022/01/31 09:20:14;;;;;;;1.30;0.67;;;2.70;99.90;;;;;;5064627;28;20633;-67
2022/01/31 09:22:41;;;;;;;1.40;0.83;;;2.60;99.90;;;;;;5070324;28;20479;-67
2022/01/31 09:25:07;;;;;;;2.10;0.90;;;2.60;99.90;;;;;;5059286;28;20441;-67
2022/01/31 09:27:33;;;;;;;1.40;0.70;;;2.70;99.90;;;;;;5072519;28;20480;-67
2022/01/31 09:29:59;;;;;;;1.77;0.80;;;2.90;99.90;;;;;;5064381;28;20446;-67
2022/01/31 09:32:25;;;;;;;1.70;1.00;;;3.00;99.90;;;;;;5085305;28;20418;-67
2022/01/31 09:34:52;;;;;;;2.80;0.87;;;3.00;99.90;;;;;;5078447;28;20431;-68
2022/01/31 09:37:21;;;;;;;3.57;1.27;;;3.20;99.90;;;;;;5071999;28;20184;-67
2022/01/31 09:39:48;;;;;;;2.40;0.90;;;3.30;99.90;;;;;;5065381;28;20487;-67
2022/01/31 09:42:23;;;;;;;1.67;0.50;;;3.40;99.90;;;;;;5072945;28;20455;-67
2022/01/31 09:45:05;;;;;;;5.73;1.83;;;3.50;99.90;;;;;;5061856;28;20411;-67
2022/01/31 09:50:20;;;;;;;5.20;1.27;;;3.60;99.90;;;;;;5029686;28;20431;-66
2022/01/31 09:52:46;;;;;;;4.80;0.83;;;3.80;99.90;;;;;;5065891;28;20430;-67
2022/01/31 09:55:12;;;;;;;9.47;1.23;;;3.80;99.90;;;;;;5067901;28;20440;-67
2022/01/31 09:57:38;;;;;;;1.20;0.60;;;3.90;99.90;;;;;;5078065;28;20338;-67
2022/01/31 10:00:05;;;;;;;2.27;0.93;;;3.90;99.90;;;;;;5068158;28;20871;-67
2022/01/31 10:02:31;;;;;;;2.10;0.90;;;3.90;99.90;;;;;;5073274;28;20827;-68
2022/01/31 10:04:57;;;;;;;3.63;1.30;;;4.00;99.90;;;;;;5064521;28;20428;-67
2022/01/31 10:07:23;;;;;;;2.63;0.80;;;4.00;99.90;;;;;;5070302;28;20224;-67
2022/01/31 10:09:50;;;;;;;1.73;0.90;;;4.00;99.90;;;;;;5064098;28;20186;-67
2022/01/31 10:17:58;;;;;;;2.03;0.90;;;3.90;99.90;;;;;;5071527;28;20460;-66
2022/01/31 10:20:32;;;;;;;2.13;0.93;;;3.90;99.90;;;;;;5069432;28;20414;-65
2022/01/31 10:23:16;;;;;;;1.60;0.80;;;3.80;99.90;;;;;;5067801;28;20466;-66
2022/01/31 10:25:43;;;;;;;2.60;1.13;;;3.80;99.90;;;;;;5057809;28;20533;-66
2022/01/31 10:28:15;;;;;;;5.10;1.60;;;3.80;99.90;;;;;;5069992;28;20463;-65
2022/01/31 10:30:41;;;;;;;3.57;1.43;;;3.80;99.90;;;;;;5066969;28;20433;-65
2022/01/31 10:33:09;;;;;;;4.77;1.10;;;3.80;99.90;;;;;;5071505;28;20423;-65
2022/01/31 10:35:36;;;;;;;4.30;1.13;;;3.70;99.90;;;;;;5068916;28;20442;-65
2022/01/31 10:38:09;;;;;;;2.30;0.70;;;3.70;99.90;;;;;;5070436;28;20799;-66
2022/01/31 10:46:20;;;;;;;1.70;0.63;;;3.80;99.90;;;;;;5073323;28;20530;-65
2022/01/31 10:52:01;;;;;;;1.67;0.70;;;3.80;99.90;;;;;;5076653;28;20915;-65
2022/01/31 10:54:39;;;;;;;3.00;1.23;;;3.90;99.90;;;;;;5059870;28;20470;-65
2022/01/31 10:57:15;;;;;;;2.27;1.00;;;3.90;99.90;;;;;;5057049;28;20548;-65
2022/01/31 10:59:47;;;;;;;1.97;0.60;;;4.00;99.90;;;;;;5050734;28;20415;-65
2022/01/31 11:02:30;;;;;;;2.17;1.17;;;4.00;99.90;;;;;;5061547;28;20472;-65
2022/01/31 11:04:56;;;;;;;2.47;0.70;;;4.10;99.90;;;;;;5057989;28;20455;-65
2022/01/31 11:07:25;;;;;;;1.73;0.80;;;4.00;99.90;;;;;;5064193;28;20507;-66
2022/01/31 11:09:53;;;;;;;4.80;1.37;;;4.00;99.90;;;;;;5062055;28;20189;-65
2022/01/31 11:12:22;;;;;;;2.70;0.87;;;4.10;99.90;;;;;;5062795;28;20718;-65
2022/01/31 11:14:48;;;;;;;5.13;1.80;;;4.10;99.90;;;;;;5061817;28;20476;-65
2022/01/31 11:17:18;;;;;;;1.80;0.80;;;4.10;99.90;;;;;;5065685;28;20426;-65
2022/01/31 11:19:55;;;;;;;1.63;1.07;;;4.10;99.90;;;;;;5064082;28;20182;-65
2022/01/31 11:22:30;;;;;;;2.33;1.20;;;4.00;99.90;;;;;;5063009;28;20842;-65
2022/01/31 11:25:03;;;;;;;3.10;1.03;;;3.90;99.90;;;;;;5067628;28;20422;-66
2022/01/31 11:27:30;;;;;;;3.93;1.47;;;3.90;99.90;;;;;;5071360;28;20460;-66
2022/01/31 11:29:55;;;;;;;10.73;1.93;;;3.90;99.90;;;;;;5068548;28;20430;-66
2022/01/31 11:32:23;;;;;;;2.20;0.90;;;3.90;99.90;;;;;;5064322;28;20792;-66
2022/01/31 11:34:49;;;;;;;3.27;1.13;;;4.00;99.90;;;;;;5070497;28;20227;-65
2022/01/31 11:37:18;;;;;;;9.50;1.10;;;4.00;99.90;;;;;;5074725;28;20887;-66
2022/01/31 11:39:47;;;;;;;3.13;0.70;;;4.00;99.90;;;;;;5066636;28;20192;-66
2022/01/31 11:42:16;;;;;;;3.33;1.33;;;4.00;99.90;;;;;;5064892;28;21359;-66
2022/01/31 11:44:46;;;;;;;3.00;1.03;;;4.00;99.90;;;;;;5071580;28;20505;-65
2022/01/31 11:47:12;;;;;;;1.57;0.83;;;4.00;99.90;;;;;;5059866;28;20428;-66
2022/01/31 11:49:50;;;;;;;2.20;1.13;;;3.90;99.90;;;;;;5061285;28;20435;-67
2022/01/31 11:52:17;;;;;;;3.83;1.00;;;3.80;99.90;;;;;;5045277;28;20943;-65
2022/01/31 11:54:46;;;;;;;2.33;0.80;;;3.80;99.90;;;;;;5063446;28;20426;-66
2022/01/31 11:57:13;;;;;;;5.23;0.97;;;3.80;99.90;;;;;;5058966;28;20937;-66
2022/01/31 11:59:40;;;;;;;15.83;1.33;;;3.80;99.90;;;;;;5055577;28;20476;-65
2022/01/31 12:02:06;;;;;;;1.40;0.63;;;3.80;99.90;;;;;;5057514;28;20471;-65
2022/01/31 12:04:33;;;;;;;5.03;0.90;;;3.70;99.90;;;;;;5064062;28;21452;-66
2022/01/31 12:06:59;;;;;;;2.57;0.93;;;3.70;99.90;;;;;;5055726;28;20549;-66
2022/01/31 12:09:28;;;;;;;2.23;0.90;;;3.70;99.90;;;;;;5066015;28;20427;-65
2022/01/31 12:12:02;;;;;;;4.17;1.10;;;3.70;99.90;;;;;;5068240;28;20651;-66
2022/01/31 12:14:52;;;;;;;1.30;0.60;;;3.60;99.90;;;;;;5076086;28;20428;-66
2022/01/31 12:17:50;;;;;;;12.13;1.43;;;3.60;99.90;;;;;;5073547;28;20478;-66
2022/01/31 12:21:59;;;;;;;2.93;0.77;;;3.60;99.90;;;;;;5063317;28;20419;-65
2022/01/31 12:23:39;;;;;;;7.73;1.23;;;3.60;99.90;;;;;;5062154;28;20475;-66
2022/01/31 12:26:27;;;;;;;2.90;1.10;;;3.50;99.90;;;;;;5069292;28;20445;-65
2022/01/31 12:29:02;;;;;;;2.60;0.70;;;3.60;99.90;;;;;;5054449;28;20423;-66
2022/01/31 12:31:28;;;;;;;1.43;0.60;;;3.50;99.90;;;;;;5056724;28;20523;-66
2022/01/31 12:33:54;;;;;;;2.83;0.80;;;3.40;99.90;;;;;;5060608;28;20495;-66
2022/01/31 12:36:34;;;;;;;2.43;1.03;;;3.50;99.90;;;;;;5070749;28;20197;-66
2022/01/31 12:39:21;;;;;;;1.67;0.80;;;3.40;99.90;;;;;;5062645;28;20520;-66
2022/01/31 12:41:46;;;;;;;1.50;0.90;;;3.40;99.90;;;;;;5065330;28;20456;-66
2022/01/31 12:44:31;;;;;;;3.33;1.07;;;3.30;99.90;;;;;;5065612;28;20461;-65
2022/01/31 12:47:14;;;;;;;4.87;0.77;;;3.30;99.90;;;;;;5070879;28;20272;-66
2022/01/31 12:49:41;;;;;;;1.70;0.90;;;3.10;99.90;;;;;;5070835;28;20455;-66
2022/01/31 12:52:08;;;;;;;3.10;0.90;;;3.10;99.90;;;;;;5068907;28;20419;-65
2022/01/31 12:54:37;;;;;;;2.50;1.07;;;2.90;99.90;;;;;;5070969;28;20438;-66
2022/01/31 12:57:09;;;;;;;2.53;0.73;;;2.90;99.90;;;;;;5069313;28;20441;-66
2022/01/31 12:59:36;;;;;;;3.73;0.80;;;2.90;99.90;;;;;;5071977;28;20546;-66
2022/01/31 13:02:08;;;;;;;6.83;0.90;;;2.80;99.90;;;;;;5071931;28;20467;-66
2022/01/31 13:04:34;;;;;;;1.70;1.00;;;2.80;99.90;;;;;;5064045;28;20501;-66
2022/01/31 13:07:05;;;;;;;2.43;0.93;;;2.70;99.90;;;;;;5071568;28;20988;-66
2022/01/31 13:09:38;;;;;;;6.97;1.07;;;2.70;99.90;;;;;;5068911;28;21020;-66
2022/01/31 13:12:11;;;;;;;4.10;1.10;;;2.70;99.90;;;;;;5065091;28;20468;-66
2022/01/31 13:14:46;;;;;;;2.70;1.10;;;2.70;99.90;;;;;;5068649;28;20719;-65
2022/01/31 13:17:16;;;;;;;8.40;1.23;;;2.60;99.90;;;;;;5065156;28;20422;-65
2022/01/31 13:19:53;;;;;;;6.53;1.17;;;2.80;99.90;;;;;;5068066;28;20790;-65
2022/01/31 13:22:27;;;;;;;6.30;1.20;;;2.60;99.90;;;;;;5067817;28;20455;-65
2022/01/31 13:24:59;;;;;;;2.13;0.70;;;2.50;99.90;;;;;;5065014;28;20423;-65
2022/01/31 13:27:32;;;;;;;2.90;1.07;;;2.50;99.90;;;;;;5067000;28;20415;-65
2022/01/31 13:29:58;;;;;;;2.13;0.83;;;2.50;99.90;;;;;;5069524;28;20421;-65